createdAt,value
2019-01-06T00:02:00.043Z,6.40
2019-01-06T00:04:21.420Z,6.60
2019-01-06T00:06:32.403Z,7.10
2019-01-06T00:08:40.331Z,6.80
2019-01-06T00:10:48.477Z,7.00
2019-01-06T00:12:59.826Z,7.00
2019-01-06T00:15:14.169Z,6.90
2019-01-06T00:17:22.265Z,7.20
2019-01-06T00:19:39.470Z,6.30
2019-01-06T00:22:00.806Z,6.90
2019-01-06T00:24:11.863Z,6.70
2019-01-06T00:26:17.120Z,6.70
2019-01-06T00:28:31.267Z,6.60
2019-01-06T00:30:36.513Z,6.70
2019-01-06T00:32:57.898Z,7.00
2019-01-06T00:35:03.185Z,6.10
2019-01-06T00:37:24.605Z,6.40
2019-01-06T00:39:35.367Z,6.20
2019-01-06T00:41:40.616Z,6.70
2019-01-06T00:43:54.525Z,6.40
2019-01-06T00:46:14.726Z,6.30
2019-01-06T00:48:25.982Z,6.60
2019-01-06T00:50:40.091Z,6.40
2019-01-06T00:52:57.389Z,6.60
2019-01-06T00:55:18.588Z,6.90
2019-01-06T00:57:29.604Z,7.10
2019-01-06T00:59:37.268Z,6.50
2019-01-06T01:01:58.890Z,6.50
2019-01-06T01:04:09.626Z,6.80
2019-01-06T01:06:23.594Z,6.90
2019-01-06T01:08:34.576Z,5.70
2019-01-06T01:10:42.466Z,6.00
2019-01-06T01:12:47.716Z,5.80
2019-01-06T01:14:55.732Z,6.20
2019-01-06T01:17:03.673Z,6.70
2019-01-06T01:19:08.940Z,6.70
2019-01-06T01:21:16.720Z,6.90
2019-01-06T01:23:24.812Z,6.50
2019-01-06T01:25:38.927Z,6.00
2019-01-06T01:27:59.133Z,6.20
2019-01-06T01:30:07.147Z,5.70
2019-01-06T01:32:15.203Z,5.90
2019-01-06T01:34:26.453Z,5.80
2019-01-06T01:36:34.633Z,5.90
2019-01-06T01:38:56.154Z,6.60
2019-01-06T01:41:04.129Z,7.00
2019-01-06T01:43:24.338Z,6.60
2019-01-06T01:45:29.593Z,6.50
2019-01-06T01:47:46.590Z,6.00
2019-01-06T01:49:51.947Z,6.80
2019-01-06T01:52:09.252Z,6.80
2019-01-06T01:54:26.274Z,7.00
2019-01-06T01:56:34.118Z,6.70
2019-01-06T01:58:45.074Z,6.10
2019-01-06T02:01:05.319Z,6.40
2019-01-06T02:03:13.382Z,6.30
2019-01-06T02:05:24.208Z,6.20
2019-01-06T02:07:38.169Z,5.20
2019-01-06T02:09:59.838Z,4.90
2019-01-06T02:12:07.757Z,5.30
2019-01-06T02:14:15.920Z,5.60
2019-01-06T02:16:23.637Z,6.40
2019-01-06T02:18:40.910Z,6.40
2019-01-06T02:20:48.912Z,6.20
2019-01-06T02:23:10.458Z,6.30
2019-01-06T02:25:15.805Z,6.30
2019-01-06T02:27:37.002Z,6.30
2019-01-06T02:30:00.190Z,5.50
2019-01-06T02:32:21.971Z,5.60
2019-01-06T02:34:43.603Z,5.70
2019-01-06T02:36:51.399Z,5.60
2019-01-06T02:38:56.630Z,5.70
2019-01-06T02:41:04.525Z,5.80
2019-01-06T02:43:09.791Z,5.60
2019-01-06T02:45:18.007Z,5.50
2019-01-06T02:47:38.233Z,5.70
2019-01-06T02:49:43.469Z,5.70
2019-01-06T02:51:57.541Z,4.60
2019-01-06T02:54:14.670Z,5.30
2019-01-06T02:56:25.706Z,5.60
2019-01-06T02:58:47.519Z,5.50
2019-01-06T03:00:52.739Z,5.80
2019-01-06T03:03:00.823Z,6.00
2019-01-06T03:05:06.368Z,6.00
2019-01-06T03:07:14.254Z,5.60
2019-01-06T03:09:34.437Z,6.10
2019-01-06T03:11:55.791Z,4.80
2019-01-06T03:14:06.791Z,5.60
2019-01-06T03:16:14.969Z,5.50
2019-01-06T03:18:20.246Z,5.40
2019-01-06T03:20:28.266Z,5.00
2019-01-06T03:22:51.611Z,5.50
2019-01-06T03:25:14.995Z,5.30
2019-01-06T03:27:20.206Z,6.00
2019-01-06T03:29:25.468Z,6.20
2019-01-06T03:31:30.687Z,5.90
2019-01-06T03:33:53.808Z,5.60
2019-01-06T03:36:05.127Z,5.90
2019-01-06T03:38:28.133Z,6.00
2019-01-06T03:40:42.349Z,6.40
2019-01-06T03:42:56.300Z,6.70
2019-01-06T03:45:17.743Z,6.50
2019-01-06T03:47:22.977Z,6.00
2019-01-06T03:49:44.455Z,6.10
2019-01-06T03:51:52.631Z,5.50
2019-01-06T03:54:15.913Z,5.70
2019-01-06T03:56:37.553Z,5.90
2019-01-06T03:58:57.623Z,6.20
2019-01-06T04:01:20.834Z,5.60
2019-01-06T04:03:43.907Z,6.10
2019-01-06T04:05:58.045Z,6.20
2019-01-06T04:08:19.423Z,5.30
2019-01-06T04:10:36.403Z,5.30
2019-01-06T04:12:57.963Z,5.00
2019-01-06T04:15:15.016Z,5.50
2019-01-06T04:17:20.336Z,5.30
2019-01-06T04:19:28.382Z,6.20
2019-01-06T04:21:33.634Z,5.40
2019-01-06T04:23:54.892Z,5.40
2019-01-06T04:26:09.241Z,5.10
2019-01-06T04:28:23.471Z,5.40
2019-01-06T04:30:31.255Z,5.70
2019-01-06T04:32:45.313Z,5.40
2019-01-06T04:34:50.560Z,5.70
2019-01-06T04:37:12.344Z,5.90
2019-01-06T04:39:20.595Z,5.80
2019-01-06T04:41:41.117Z,5.30
2019-01-06T04:43:54.911Z,5.90
2019-01-06T04:46:16.492Z,6.30
2019-01-06T04:48:27.804Z,5.90
2019-01-06T04:50:41.627Z,5.90
2019-01-06T04:52:46.887Z,6.10
2019-01-06T04:54:52.210Z,6.30
2019-01-06T04:57:13.479Z,5.90
2019-01-06T04:59:24.714Z,5.70
2019-01-06T05:01:45.796Z,6.00
2019-01-06T05:04:08.871Z,6.00
2019-01-06T05:06:19.962Z,6.50
2019-01-06T05:08:40.938Z,5.80
2019-01-06T05:11:02.202Z,5.40
2019-01-06T05:13:19.711Z,5.70
2019-01-06T05:15:43.061Z,6.40
2019-01-06T05:18:03.382Z,5.50
2019-01-06T05:20:11.355Z,5.70
2019-01-06T05:22:22.601Z,6.10
2019-01-06T05:24:44.082Z,6.30
2019-01-06T05:26:51.710Z,6.30
2019-01-06T05:29:02.396Z,5.60
2019-01-06T05:31:07.646Z,4.60
2019-01-06T05:33:12.908Z,5.40
2019-01-06T05:35:34.202Z,5.70
2019-01-06T05:37:42.294Z,5.80
2019-01-06T05:39:47.563Z,6.30
2019-01-06T05:41:58.522Z,6.10
2019-01-06T05:44:03.796Z,6.10
2019-01-06T05:46:15.197Z,6.40
2019-01-06T05:48:23.315Z,6.30
2019-01-06T05:50:31.143Z,6.50
2019-01-06T05:52:36.371Z,6.50
2019-01-06T05:54:53.751Z,5.80
2019-01-06T05:57:04.846Z,5.40
2019-01-06T05:59:10.243Z,5.30
2019-01-06T06:01:18.251Z,5.80
2019-01-06T06:03:23.495Z,5.40
2019-01-06T06:05:44.814Z,6.00
2019-01-06T06:07:50.048Z,6.50
2019-01-06T06:10:13.423Z,6.20
2019-01-06T06:12:18.659Z,5.30
2019-01-06T06:14:23.881Z,5.40
2019-01-06T06:16:38.011Z,5.30
2019-01-06T06:18:59.534Z,5.00
2019-01-06T06:21:13.899Z,5.30
2019-01-06T06:23:31.028Z,5.30
2019-01-06T06:25:47.914Z,5.10
2019-01-06T06:28:09.722Z,5.30
2019-01-06T06:30:33.240Z,5.50
2019-01-06T06:32:54.755Z,5.60
2019-01-06T06:35:00.258Z,5.60
2019-01-06T06:37:08.296Z,5.80
2019-01-06T06:39:13.528Z,5.90
2019-01-06T06:41:27.918Z,6.00
2019-01-06T06:43:49.597Z,6.40
2019-01-06T06:46:10.151Z,6.10
2019-01-06T06:48:27.221Z,5.80
2019-01-06T06:50:47.722Z,5.90
2019-01-06T06:52:58.750Z,6.00
2019-01-06T06:55:15.897Z,5.20
2019-01-06T06:58:03.746Z,5.00
2019-01-06T07:00:50.967Z,5.10
2019-01-06T07:02:56.227Z,5.00
2019-01-06T07:05:01.443Z,5.40
2019-01-06T07:07:21.827Z,5.50
2019-01-06T07:09:27.052Z,5.50
2019-01-06T07:11:34.814Z,5.80
2019-01-06T07:13:46.159Z,5.90
2019-01-06T07:15:51.384Z,5.60
2019-01-06T07:18:12.990Z,5.90
2019-01-06T07:20:42.917Z,5.80
2019-01-06T07:22:53.755Z,5.10
2019-01-06T07:25:15.061Z,5.40
2019-01-06T07:27:20.296Z,5.60
2019-01-06T07:29:37.674Z,5.80
2019-01-06T07:31:57.771Z,5.30
2019-01-06T07:34:18.014Z,5.80
2019-01-06T07:36:23.256Z,5.90
2019-01-06T07:38:31.143Z,6.30
2019-01-06T07:40:36.371Z,6.40
2019-01-06T07:42:47.337Z,5.80
2019-01-06T07:45:01.638Z,6.30
2019-01-06T07:47:06.875Z,5.80
2019-01-06T07:49:14.768Z,6.30
2019-01-06T07:51:25.807Z,6.50
2019-01-06T07:53:43.170Z,6.90
2019-01-06T07:55:48.407Z,6.60
2019-01-06T07:57:53.738Z,6.60
2019-01-06T08:00:04.752Z,6.30
2019-01-06T08:02:26.468Z,6.60
2019-01-06T08:04:40.260Z,5.80
2019-01-06T08:06:54.574Z,6.50
2019-01-06T08:09:15.999Z,6.20
2019-01-06T08:11:39.408Z,6.10
2019-01-06T08:13:59.722Z,6.10
2019-01-06T08:16:05.003Z,5.80
2019-01-06T08:18:16.044Z,5.70
2019-01-06T08:20:39.303Z,5.40
2019-01-06T08:22:50.560Z,5.60
2019-01-06T08:24:55.799Z,5.90
2019-01-06T08:27:10.188Z,6.20
2019-01-06T08:29:27.513Z,6.90
2019-01-06T08:31:35.443Z,5.80
2019-01-06T08:33:43.269Z,5.20
2019-01-06T08:36:04.587Z,6.10
2019-01-06T08:38:26.012Z,6.70
2019-01-06T08:40:31.252Z,6.60
2019-01-06T08:42:39.227Z,6.40
2019-01-06T08:44:44.694Z,6.60
2019-01-06T08:46:49.949Z,6.00
2019-01-06T08:49:00.986Z,5.70
2019-01-06T08:51:15.282Z,6.00
2019-01-06T08:53:32.333Z,5.40
2019-01-06T08:55:40.287Z,5.60
2019-01-06T08:57:47.960Z,5.90
2019-01-06T08:59:59.127Z,6.50
2019-01-06T09:02:16.222Z,6.90
2019-01-06T09:04:21.474Z,6.20
2019-01-06T09:06:38.494Z,6.70
2019-01-06T09:09:01.863Z,6.70
2019-01-06T09:11:23.426Z,6.60
2019-01-06T09:13:28.671Z,7.20
2019-01-06T09:15:50.197Z,7.50
2019-01-06T09:17:55.464Z,6.90
2019-01-06T09:20:00.690Z,7.30
2019-01-06T09:22:11.954Z,7.60
2019-01-06T09:24:33.488Z,7.50
2019-01-06T09:26:54.765Z,7.70
2019-01-06T09:29:02.849Z,6.60
2019-01-06T09:31:08.083Z,6.10
2019-01-06T09:33:13.327Z,6.40
2019-01-06T09:35:21.398Z,5.90
2019-01-06T09:37:26.709Z,6.20
2019-01-06T09:39:48.434Z,6.40
2019-01-06T09:41:53.671Z,7.00
2019-01-06T09:44:15.110Z,7.20
2019-01-06T09:46:35.417Z,6.60
2019-01-06T09:48:43.511Z,6.20
2019-01-06T09:51:05.173Z,5.90
2019-01-06T09:53:22.302Z,5.70
2019-01-06T09:55:36.561Z,5.90
2019-01-06T09:57:58.112Z,6.20
2019-01-06T10:00:19.361Z,6.20
2019-01-06T10:02:26.144Z,6.00
2019-01-06T10:04:43.623Z,6.00
2019-01-06T10:06:57.811Z,6.30
2019-01-06T10:09:17.754Z,6.00
2019-01-06T10:11:39.214Z,5.90
2019-01-06T10:13:44.452Z,6.10
2019-01-06T10:16:01.341Z,6.20
2019-01-06T10:18:12.585Z,5.50
2019-01-06T10:20:20.436Z,5.60
2019-01-06T10:22:25.693Z,5.80
2019-01-06T10:24:52.020Z,6.20
2019-01-06T10:27:05.283Z,5.80
2019-01-06T10:29:13.188Z,6.20
2019-01-06T10:31:18.439Z,6.60
2019-01-06T10:33:39.834Z,6.90
2019-01-06T10:35:53.826Z,6.70
2019-01-06T10:38:01.812Z,7.00
2019-01-06T10:40:18.177Z,7.00
2019-01-06T10:42:23.430Z,6.60
2019-01-06T10:44:40.647Z,5.80
2019-01-06T10:47:03.866Z,5.90
2019-01-06T10:49:25.195Z,6.00
2019-01-06T10:51:48.486Z,6.10
2019-01-06T10:54:09.859Z,5.60
2019-01-06T10:56:23.862Z,5.40
2019-01-06T10:58:34.678Z,5.20
2019-01-06T11:00:45.715Z,5.20
2019-01-06T11:02:56.894Z,5.30
2019-01-06T11:05:11.106Z,5.20
2019-01-06T11:07:25.384Z,5.40
2019-01-06T11:09:45.779Z,5.10
2019-01-06T11:11:56.844Z,5.40
2019-01-06T11:14:14.291Z,5.40
2019-01-06T11:16:22.358Z,5.70
2019-01-06T11:18:30.437Z,5.70
2019-01-06T11:20:35.916Z,5.90
2019-01-06T11:22:53.150Z,5.40
2019-01-06T11:25:10.531Z,5.40
2019-01-06T11:27:30.960Z,5.90
2019-01-06T11:29:51.358Z,5.90
2019-01-06T11:31:56.611Z,6.10
2019-01-06T11:34:04.576Z,5.90
2019-01-06T11:36:09.831Z,6.10
2019-01-06T11:38:26.774Z,6.00
2019-01-06T11:40:46.788Z,5.80
2019-01-06T11:43:00.806Z,5.50
2019-01-06T11:45:23.252Z,5.40
2019-01-06T11:47:28.518Z,5.70
2019-01-06T11:49:36.660Z,5.00
2019-01-06T11:51:41.913Z,5.60
2019-01-06T11:53:50.012Z,5.50
2019-01-06T11:56:04.367Z,5.20
2019-01-06T11:58:25.626Z,5.60
2019-01-06T12:00:47.058Z,6.10
2019-01-06T12:02:52.331Z,6.40
2019-01-06T12:05:00.239Z,6.30
2019-01-06T12:07:07.985Z,6.40
2019-01-06T12:09:13.216Z,6.70
2019-01-06T12:11:34.850Z,6.40
2019-01-06T12:13:45.837Z,6.20
2019-01-06T12:15:51.093Z,6.60
2019-01-06T12:18:04.990Z,6.20
2019-01-06T12:20:10.306Z,6.30
2019-01-06T12:22:24.775Z,6.40
2019-01-06T12:24:32.420Z,6.50
2019-01-06T12:26:53.535Z,6.60
2019-01-06T12:28:58.791Z,6.60
2019-01-06T12:31:10.020Z,6.30
2019-01-06T12:33:20.981Z,6.50
2019-01-06T12:35:31.949Z,5.90
2019-01-06T12:37:46.253Z,6.20
2019-01-06T12:40:09.270Z,6.60
2019-01-06T12:42:30.582Z,6.90
2019-01-06T12:44:47.672Z,6.50
2019-01-06T12:47:08.790Z,6.30
2019-01-06T12:49:16.839Z,6.20
2019-01-06T12:51:43.711Z,6.60
2019-01-06T12:54:02.967Z,6.70
2019-01-06T12:56:20.347Z,6.80
2019-01-06T12:58:28.095Z,7.10
2019-01-06T13:00:39.164Z,6.60
2019-01-06T13:03:00.641Z,6.30
2019-01-06T13:05:21.258Z,6.30
2019-01-06T13:07:35.115Z,6.90
2019-01-06T13:09:49.543Z,6.90
2019-01-06T13:11:57.486Z,6.50
2019-01-06T13:14:17.880Z,6.50
2019-01-06T13:16:37.928Z,5.60
2019-01-06T13:18:55.132Z,5.70
2019-01-06T13:21:02.931Z,6.10
2019-01-06T13:23:08.149Z,6.40
2019-01-06T13:25:16.018Z,6.20
2019-01-06T13:27:37.582Z,6.30
2019-01-06T13:29:42.813Z,6.00
2019-01-06T13:31:48.070Z,5.40
2019-01-06T13:33:53.297Z,5.60
2019-01-06T13:36:01.164Z,6.10
2019-01-06T13:38:06.410Z,5.90
2019-01-06T13:40:20.363Z,6.30
2019-01-06T13:42:32.270Z,6.30
2019-01-06T13:44:43.502Z,6.00
2019-01-06T13:46:51.591Z,6.10
2019-01-06T13:48:56.854Z,6.20
2019-01-06T13:51:02.141Z,6.00
2019-01-06T13:53:24.036Z,6.00
2019-01-06T13:55:35.280Z,5.80
2019-01-06T13:57:43.041Z,5.60
2019-01-06T13:59:48.268Z,5.30
2019-01-06T14:01:59.208Z,5.40
2019-01-06T14:04:13.693Z,5.50
2019-01-06T14:06:18.910Z,5.60
2019-01-06T14:08:33.027Z,5.50
2019-01-06T14:10:47.095Z,5.30
2019-01-06T14:12:55.066Z,5.70
2019-01-06T14:15:16.558Z,5.90
2019-01-06T14:17:37.969Z,6.50
2019-01-06T14:19:46.363Z,6.00
2019-01-06T14:21:51.594Z,6.10
2019-01-06T14:24:08.807Z,6.00
2019-01-06T14:26:30.270Z,6.00
2019-01-06T14:28:51.975Z,5.90
2019-01-06T14:31:15.051Z,5.90
2019-01-06T14:33:20.322Z,6.00
2019-01-06T14:35:25.574Z,5.80
2019-01-06T14:37:30.856Z,6.00
2019-01-06T14:39:44.799Z,6.10
2019-01-06T14:41:52.932Z,6.00
2019-01-06T14:44:00.886Z,6.50
2019-01-06T14:46:22.451Z,7.10
2019-01-06T14:48:43.854Z,7.60
2019-01-06T14:51:05.158Z,8.00
2019-01-06T14:53:26.435Z,7.40
2019-01-06T14:55:43.766Z,6.70
2019-01-06T15:00:02.506Z,6.60
2019-01-06T15:02:19.996Z,6.10
2019-01-06T15:04:25.226Z,6.00
2019-01-06T15:06:46.760Z,6.00
2019-01-06T15:08:53.320Z,6.40
2019-01-06T15:11:10.726Z,6.60
2019-01-06T15:13:32.294Z,6.20
2019-01-06T15:15:53.802Z,6.20
2019-01-06T15:18:13.993Z,6.00
2019-01-06T15:20:21.859Z,6.10
2019-01-06T15:22:43.184Z,6.30
2019-01-06T15:24:51.154Z,6.10
2019-01-06T15:27:12.518Z,5.60
2019-01-06T15:29:20.171Z,5.80
2019-01-06T15:31:25.421Z,6.30
2019-01-06T15:33:33.638Z,5.60
2019-01-06T15:35:55.038Z,5.80
2019-01-06T15:38:06.059Z,6.20
2019-01-06T15:40:14.112Z,6.60
2019-01-06T15:42:22.238Z,6.90
2019-01-06T15:44:44.074Z,7.30
2019-01-06T15:47:04.371Z,7.60
2019-01-06T15:49:09.727Z,6.70
2019-01-06T15:51:31.283Z,6.60
2019-01-06T15:53:36.880Z,6.90
2019-01-06T15:55:58.482Z,7.00
2019-01-06T15:58:19.991Z,6.80
2019-01-06T16:00:41.658Z,7.10
2019-01-06T16:02:49.763Z,6.70
2019-01-06T16:05:14.965Z,6.10
2019-01-06T16:07:22.980Z,5.70
2019-01-06T16:09:28.256Z,6.60
2019-01-06T16:11:45.310Z,6.70
2019-01-06T16:13:53.023Z,7.00
2019-01-06T16:15:58.258Z,7.10
2019-01-06T16:18:03.582Z,7.10
2019-01-06T16:20:11.712Z,7.30
2019-01-06T16:22:32.930Z,7.70
2019-01-06T16:24:46.812Z,6.80
2019-01-06T16:26:52.062Z,6.80
2019-01-06T16:29:00.399Z,7.20
2019-01-06T16:31:08.483Z,6.70
2019-01-06T16:33:31.767Z,6.80
2019-01-06T16:35:39.723Z,6.90
2019-01-06T16:38:03.193Z,6.90
2019-01-06T16:40:25.755Z,7.20
2019-01-06T16:42:43.057Z,7.00
2019-01-06T16:45:00.581Z,6.30
2019-01-06T16:47:21.045Z,6.70
2019-01-06T16:49:29.126Z,6.70
2019-01-06T16:51:34.446Z,6.40
2019-01-06T16:53:39.722Z,5.90
2019-01-06T16:55:57.040Z,6.40
2019-01-06T16:58:14.314Z,6.50
2019-01-06T17:00:35.931Z,5.70
2019-01-06T17:02:59.377Z,6.10
2019-01-06T17:05:07.308Z,6.00
2019-01-06T17:07:18.343Z,6.10
2019-01-06T17:09:38.420Z,6.00
2019-01-06T17:12:01.770Z,5.90
2019-01-06T17:14:12.870Z,5.80
2019-01-06T17:16:18.079Z,5.80
2019-01-06T17:18:28.919Z,6.10
2019-01-06T17:20:45.694Z,6.50
2019-01-06T17:22:59.996Z,6.20
2019-01-06T17:25:08.183Z,6.40
2019-01-06T17:27:27.600Z,5.90
2019-01-06T17:29:35.431Z,5.90
2019-01-06T17:31:49.722Z,6.10
2019-01-06T17:34:11.167Z,5.90
2019-01-06T17:36:16.438Z,5.70
2019-01-06T17:38:21.664Z,5.90
2019-01-06T17:40:27.544Z,6.00
2019-01-06T17:42:49.137Z,5.80
2019-01-06T17:45:10.634Z,5.10
2019-01-06T17:47:15.939Z,5.50
2019-01-06T17:49:21.215Z,5.60
2019-01-06T17:51:42.453Z,5.70
2019-01-06T17:54:03.467Z,5.60
2019-01-06T17:56:14.772Z,5.30
2019-01-06T17:58:28.938Z,5.90
2019-01-06T18:00:50.470Z,5.90
2019-01-06T18:02:58.188Z,5.70
2019-01-06T18:05:12.582Z,6.00
2019-01-06T18:07:17.812Z,6.10
2019-01-06T18:09:28.671Z,6.00
2019-01-06T18:11:49.091Z,6.00
2019-01-06T18:14:03.515Z,5.90
2019-01-06T18:16:08.805Z,5.70
2019-01-06T18:18:30.277Z,5.40
2019-01-06T18:20:38.462Z,5.70
2019-01-06T18:22:55.356Z,5.70
2019-01-06T18:25:09.707Z,6.10
2019-01-06T18:27:17.710Z,5.80
2019-01-06T18:29:39.239Z,5.40
2019-01-06T18:32:00.544Z,5.80
2019-01-06T18:34:22.131Z,6.00
2019-01-06T18:36:32.960Z,5.70
2019-01-06T18:38:38.212Z,5.80
2019-01-06T18:40:46.120Z,6.20
2019-01-06T18:43:19.475Z,5.70
2019-01-06T18:45:34.077Z,5.50
2019-01-06T18:47:44.862Z,5.20
2019-01-06T18:49:59.283Z,5.10
2019-01-06T18:52:19.698Z,5.10
2019-01-06T18:54:24.944Z,5.40
2019-01-06T18:56:46.224Z,6.00
2019-01-06T18:59:08.607Z,5.90
2019-01-06T19:01:26.040Z,6.00
2019-01-06T19:03:31.315Z,5.80
2019-01-06T19:05:51.610Z,5.20
2019-01-06T19:08:02.488Z,5.40
2019-01-06T19:10:07.727Z,5.40
2019-01-06T19:12:18.801Z,5.40
2019-01-06T19:14:24.096Z,6.10
2019-01-06T19:16:31.763Z,6.20
2019-01-06T19:18:53.380Z,6.30
2019-01-06T19:21:07.627Z,5.90
2019-01-06T19:23:21.434Z,5.90
2019-01-06T19:25:42.943Z,6.30
2019-01-06T19:27:48.307Z,6.80
2019-01-06T19:30:09.772Z,7.10
2019-01-06T19:32:31.252Z,7.20
2019-01-06T19:34:36.526Z,6.50
2019-01-06T19:36:50.650Z,6.70
2019-01-06T19:39:07.902Z,6.50
2019-01-06T19:41:19.063Z,6.30
2019-01-06T19:43:30.115Z,6.60
2019-01-06T19:45:51.795Z,7.10
2019-01-06T19:47:59.902Z,7.40
2019-01-06T19:50:14.789Z,7.40
2019-01-06T19:52:36.484Z,7.30
2019-01-06T19:54:41.745Z,7.10
2019-01-06T19:56:46.971Z,6.80
2019-01-06T19:58:58.339Z,7.30
2019-01-06T20:01:03.557Z,7.00
2019-01-06T20:03:14.562Z,6.90
2019-01-06T20:05:28.682Z,7.00
2019-01-06T20:07:33.931Z,6.90
2019-01-06T20:09:45.076Z,6.70
2019-01-06T20:11:50.302Z,6.90
2019-01-06T20:13:58.330Z,7.10
2019-01-06T20:16:09.575Z,6.90
2019-01-06T20:18:20.370Z,6.90
2019-01-06T20:20:34.339Z,6.40
2019-01-06T20:22:57.459Z,6.10
2019-01-06T20:25:18.742Z,6.30
2019-01-06T20:27:23.978Z,6.30
2019-01-06T20:29:32.022Z,6.80
2019-01-06T20:31:46.150Z,7.00
2019-01-06T20:33:54.193Z,7.50
2019-01-06T20:36:15.835Z,6.80
2019-01-06T20:38:26.509Z,6.80
2019-01-06T20:40:31.763Z,6.40
2019-01-06T20:42:53.271Z,6.80
2019-01-06T20:45:10.284Z,7.30
2019-01-06T20:47:21.610Z,7.00
2019-01-06T20:49:41.653Z,6.50
2019-01-06T20:51:55.430Z,7.00
2019-01-06T20:54:09.441Z,6.70
2019-01-06T20:56:14.680Z,6.80
2019-01-06T20:58:25.810Z,7.00
2019-01-06T21:00:31.080Z,7.00
2019-01-06T21:02:36.379Z,6.40
2019-01-06T21:04:41.610Z,6.70
2019-01-06T21:07:02.719Z,6.80
2019-01-06T21:09:27.199Z,6.80
2019-01-06T21:11:47.437Z,7.00
2019-01-06T21:13:58.494Z,7.10
2019-01-06T21:16:15.778Z,7.00
2019-01-06T21:18:26.622Z,6.70
2019-01-06T21:20:34.302Z,6.80
2019-01-06T21:22:39.537Z,6.80
2019-01-06T21:24:44.802Z,6.50
2019-01-06T21:26:58.696Z,6.70
2019-01-06T21:29:20.183Z,7.10
2019-01-06T21:31:25.416Z,7.60
2019-01-06T21:33:46.907Z,7.40
2019-01-06T21:36:04.191Z,7.60
2019-01-06T21:38:15.163Z,8.00
2019-01-06T21:40:23.201Z,7.90
2019-01-06T21:42:43.383Z,7.60
2019-01-06T21:45:03.424Z,7.70
2019-01-06T21:47:08.670Z,7.70
2019-01-06T21:49:25.989Z,7.80
2019-01-06T21:51:33.688Z,7.80
2019-01-06T21:53:38.919Z,7.80
2019-01-06T21:55:44.172Z,7.90
2019-01-06T21:57:58.324Z,7.70
2019-01-06T22:00:05.419Z,5.90
2019-01-06T22:02:26.794Z,6.70
2019-01-06T22:04:34.721Z,6.80
2019-01-06T22:06:56.205Z,7.00
2019-01-06T22:09:13.562Z,6.60
2019-01-06T22:11:21.378Z,6.70
2019-01-06T22:13:42.886Z,7.00
2019-01-06T22:16:04.351Z,6.50
2019-01-06T22:18:26.011Z,6.10
2019-01-06T22:20:49.614Z,6.30
2019-01-06T22:22:54.880Z,6.20
2019-01-06T22:25:14.960Z,6.00
2019-01-06T22:27:23.042Z,6.60
2019-01-06T22:29:46.507Z,6.90
2019-01-06T22:32:00.759Z,6.40
2019-01-06T22:34:23.923Z,6.00
2019-01-06T22:36:45.243Z,6.10
2019-01-06T22:39:05.710Z,5.90
2019-01-06T22:41:13.503Z,5.50
2019-01-06T22:43:30.947Z,5.40
2019-01-06T22:45:48.255Z,5.60
2019-01-06T22:47:53.521Z,5.30
2019-01-06T22:50:01.509Z,6.00
2019-01-06T22:52:12.369Z,6.10
2019-01-06T22:54:35.779Z,6.40
2019-01-06T22:56:41.025Z,6.50
2019-01-06T22:59:03.965Z,6.20
2019-01-06T23:01:25.637Z,6.30
2019-01-06T23:03:36.676Z,6.40
2019-01-06T23:05:57.840Z,6.70
2019-01-06T23:08:14.778Z,6.70
2019-01-06T23:10:20.011Z,6.90
2019-01-06T23:12:25.242Z,7.00
2019-01-06T23:14:36.160Z,7.50
2019-01-06T23:16:53.242Z,7.10
2019-01-06T23:19:14.894Z,7.20
2019-01-06T23:21:22.554Z,7.40
2019-01-06T23:23:44.183Z,7.60
2019-01-06T23:26:02.211Z,7.60
2019-01-06T23:28:07.602Z,7.50
2019-01-06T23:30:18.555Z,7.50
2019-01-06T23:32:40.146Z,7.60
2019-01-06T23:34:54.395Z,7.90
2019-01-06T23:37:16.111Z,7.50
2019-01-06T23:39:37.670Z,6.90
2019-01-06T23:41:45.482Z,6.80
2019-01-06T23:44:07.396Z,6.90
2019-01-06T23:46:15.458Z,7.00
2019-01-06T23:48:26.596Z,7.10
2019-01-06T23:50:46.582Z,7.00
2019-01-06T23:52:54.397Z,6.30
2019-01-06T23:55:14.766Z,6.40
2019-01-06T23:57:36.077Z,5.90
2019-01-06T23:59:50.451Z,5.90
